sensor_id;sensor_type;location;lat;lon;timestamp;pressure;altitude;pressure_sealevel;temperature;humidity
56992;BME280;42885;49.754;18.636;2023-11-21T00:01:18;97497.55;;;12.22;100.00
56992;BME280;42885;49.754;18.636;2023-11-21T00:03:49;97486.55;;;12.23;100.00
56992;BME280;42885;49.754;18.636;2023-11-21T00:06:20;97498.27;;;12.07;100.00
56992;BME280;42885;49.754;18.636;2023-11-21T00:08:51;97496.70;;;12.22;100.00
56992;BME280;42885;49.754;18.636;2023-11-21T00:11:23;97492.91;;;12.09;100.00
56992;BME280;42885;49.754;18.636;2023-11-21T00:13:55;97500.31;;;12.09;100.00
56992;BME280;42885;49.754;18.636;2023-11-21T00:16:26;97496.23;;;12.22;100.00
56992;BME280;42885;49.754;18.636;2023-11-21T00:18:57;97502.52;;;12.31;100.00
56992;BME280;42885;49.754;18.636;2023-11-21T00:21:28;97506.69;;;12.34;100.00
56992;BME280;42885;49.754;18.636;2023-11-21T00:23:59;97508.74;;;12.24;100.00
56992;BME280;42885;49.754;18.636;2023-11-21T00:26:30;97515.98;;;12.44;100.00
56992;BME280;42885;49.754;18.636;2023-11-21T00:29:04;97515.42;;;12.29;100.00
56992;BME280;42885;49.754;18.636;2023-11-21T00:31:37;97514.09;;;12.34;100.00
56992;BME280;42885;49.754;18.636;2023-11-21T00:34:08;97516.50;;;12.26;100.00
56992;BME280;42885;49.754;18.636;2023-11-21T00:36:40;97516.20;;;12.41;99.57
56992;BME280;42885;49.754;18.636;2023-11-21T00:39:11;97516.66;;;12.51;98.88
56992;BME280;42885;49.754;18.636;2023-11-21T00:41:43;97517.52;;;12.41;97.63
56992;BME280;42885;49.754;18.636;2023-11-21T00:44:15;97518.50;;;12.34;98.44
56992;BME280;42885;49.754;18.636;2023-11-21T00:46:46;97523.04;;;12.32;99.12
56992;BME280;42885;49.754;18.636;2023-11-21T00:49:17;97515.05;;;12.28;98.97
56992;BME280;42885;49.754;18.636;2023-11-21T00:51:48;97521.60;;;12.28;98.12
56992;BME280;42885;49.754;18.636;2023-11-21T00:54:19;97509.81;;;12.33;98.46
56992;BME280;42885;49.754;18.636;2023-11-21T00:56:50;97509.83;;;12.16;99.39
56992;BME280;42885;49.754;18.636;2023-11-21T00:59:22;97518.99;;;12.33;98.77
56992;BME280;42885;49.754;18.636;2023-11-21T01:01:54;97515.66;;;12.25;99.53
56992;BME280;42885;49.754;18.636;2023-11-21T01:04:25;97504.78;;;12.30;99.24
56992;BME280;42885;49.754;18.636;2023-11-21T01:06:57;97509.57;;;12.19;99.69
56992;BME280;42885;49.754;18.636;2023-11-21T01:09:28;97506.24;;;12.29;99.82
56992;BME280;42885;49.754;18.636;2023-11-21T01:12:00;97511.02;;;12.06;100.00
56992;BME280;42885;49.754;18.636;2023-11-21T01:14:32;97510.16;;;12.23;100.00
56992;BME280;42885;49.754;18.636;2023-11-21T01:17:03;97500.28;;;12.21;99.29
56992;BME280;42885;49.754;18.636;2023-11-21T01:19:35;97499.69;;;12.17;99.76
56992;BME280;42885;49.754;18.636;2023-11-21T01:22:07;97505.52;;;12.21;98.90
56992;BME280;42885;49.754;18.636;2023-11-21T01:24:39;97503.17;;;12.12;98.69
56992;BME280;42885;49.754;18.636;2023-11-21T01:27:10;97504.23;;;12.15;97.98
56992;BME280;42885;49.754;18.636;2023-11-21T01:29:41;97508.76;;;12.19;98.15
56992;BME280;42885;49.754;18.636;2023-11-21T01:32:12;97508.64;;;12.20;97.81
56992;BME280;42885;49.754;18.636;2023-11-21T01:34:43;97511.13;;;12.33;96.96
56992;BME280;42885;49.754;18.636;2023-11-21T01:37:14;97510.01;;;12.47;95.33
56992;BME280;42885;49.754;18.636;2023-11-21T01:39:47;97522.63;;;12.48;95.63
56992;BME280;42885;49.754;18.636;2023-11-21T01:42:18;97523.50;;;12.43;96.09
56992;BME280;42885;49.754;18.636;2023-11-21T01:44:49;97522.87;;;12.50;94.84
56992;BME280;42885;49.754;18.636;2023-11-21T01:47:21;97523.32;;;12.61;92.86
56992;BME280;42885;49.754;18.636;2023-11-21T01:49:53;97526.42;;;12.66;92.76
56992;BME280;42885;49.754;18.636;2023-11-21T01:52:25;97525.31;;;12.75;92.11
56992;BME280;42885;49.754;18.636;2023-11-21T01:54:58;97522.22;;;12.70;92.64
56992;BME280;42885;49.754;18.636;2023-11-21T01:57:30;97526.38;;;13.53;91.38
56992;BME280;42885;49.754;18.636;2023-11-21T02:00:02;97523.34;;;12.56;92.81
56992;BME280;42885;49.754;18.636;2023-11-21T02:02:37;97524.73;;;12.71;92.10
56992;BME280;42885;49.754;18.636;2023-11-21T02:05:10;97526.58;;;12.53;92.43
56992;BME280;42885;49.754;18.636;2023-11-21T02:07:42;97529.45;;;12.45;92.47
56992;BME280;42885;49.754;18.636;2023-11-21T02:10:15;97529.84;;;12.34;94.62
56992;BME280;42885;49.754;18.636;2023-11-21T02:12:47;97529.92;;;12.50;93.18
56992;BME280;42885;49.754;18.636;2023-11-21T02:15:18;97532.72;;;12.70;92.52
56992;BME280;42885;49.754;18.636;2023-11-21T02:17:50;97529.69;;;12.36;93.95
56992;BME280;42885;49.754;18.636;2023-11-21T02:20:22;97524.62;;;12.11;95.68
56992;BME280;42885;49.754;18.636;2023-11-21T02:22:56;97522.48;;;12.17;96.22
56992;BME280;42885;49.754;18.636;2023-11-21T02:25:32;97529.85;;;12.17;95.91
56992;BME280;42885;49.754;18.636;2023-11-21T02:28:03;97525.42;;;12.29;95.42
56992;BME280;42885;49.754;18.636;2023-11-21T02:30:34;97525.52;;;13.10;93.92
56992;BME280;42885;49.754;18.636;2023-11-21T02:33:06;97524.95;;;12.24;95.69
56992;BME280;42885;49.754;18.636;2023-11-21T02:35:37;97527.33;;;12.33;95.29
56992;BME280;42885;49.754;18.636;2023-11-21T02:38:08;97525.77;;;12.42;95.33
56992;BME280;42885;49.754;18.636;2023-11-21T02:40:40;97524.59;;;12.34;95.18
56992;BME280;42885;49.754;18.636;2023-11-21T02:43:11;97526.92;;;12.49;94.79
56992;BME280;42885;49.754;18.636;2023-11-21T02:45:42;97527.96;;;12.63;93.26
56992;BME280;42885;49.754;18.636;2023-11-21T02:48:14;97526.64;;;12.25;94.89
56992;BME280;42885;49.754;18.636;2023-11-21T02:50:45;97534.37;;;12.38;95.20
56992;BME280;42885;49.754;18.636;2023-11-21T02:53:17;97533.41;;;12.39;94.37
56992;BME280;42885;49.754;18.636;2023-11-21T02:55:48;97534.70;;;12.45;94.16
56992;BME280;42885;49.754;18.636;2023-11-21T02:58:19;97542.34;;;12.36;94.51
56992;BME280;42885;49.754;18.636;2023-11-21T03:00:50;97537.72;;;12.29;94.61
56992;BME280;42885;49.754;18.636;2023-11-21T03:03:21;97530.78;;;12.39;94.12
56992;BME280;42885;49.754;18.636;2023-11-21T03:05:54;97524.83;;;12.25;96.60
56992;BME280;42885;49.754;18.636;2023-11-21T03:08:26;97524.83;;;12.25;96.60
56992;BME280;42885;49.754;18.636;2023-11-21T03:10:57;97542.16;;;12.17;96.80
56992;BME280;42885;49.754;18.636;2023-11-21T03:13:29;97534.61;;;12.29;96.35
56992;BME280;42885;49.754;18.636;2023-11-21T03:16:01;97542.14;;;12.22;96.52
56992;BME280;42885;49.754;18.636;2023-11-21T03:18:32;97538.28;;;12.32;95.81
56992;BME280;42885;49.754;18.636;2023-11-21T03:21:05;97537.10;;;12.36;95.15
56992;BME280;42885;49.754;18.636;2023-11-21T03:23:38;97534.61;;;12.29;95.61
56992;BME280;42885;49.754;18.636;2023-11-21T03:26:14;97537.36;;;12.33;95.36
56992;BME280;42885;49.754;18.636;2023-11-21T03:28:45;97525.20;;;12.21;95.68
56992;BME280;42885;49.754;18.636;2023-11-21T03:31:16;97532.31;;;12.47;93.47
56992;BME280;42885;49.754;18.636;2023-11-21T03:33:48;97532.69;;;12.43;94.12
56992;BME280;42885;49.754;18.636;2023-11-21T03:36:20;97540.05;;;12.49;93.72
56992;BME280;42885;49.754;18.636;2023-11-21T03:38:53;97532.92;;;12.34;93.98
56992;BME280;42885;49.754;18.636;2023-11-21T03:41:25;97537.32;;;12.45;94.00
56992;BME280;42885;49.754;18.636;2023-11-21T03:43:57;97539.87;;;12.73;91.19
56992;BME280;42885;49.754;18.636;2023-11-21T03:46:29;97536.89;;;12.72;91.02
56992;BME280;42885;49.754;18.636;2023-11-21T03:49:00;97540.78;;;12.39;92.48
56992;BME280;42885;49.754;18.636;2023-11-21T03:51:31;97535.42;;;12.41;92.75
56992;BME280;42885;49.754;18.636;2023-11-21T03:54:03;97539.48;;;12.45;93.04
56992;BME280;42885;49.754;18.636;2023-11-21T03:56:34;97537.70;;;12.34;94.11
56992;BME280;42885;49.754;18.636;2023-11-21T03:59:05;97536.05;;;12.33;94.06
56992;BME280;42885;49.754;18.636;2023-11-21T04:01:36;97539.05;;;12.11;94.62
56992;BME280;42885;49.754;18.636;2023-11-21T04:04:07;97536.53;;;12.10;96.01
56992;BME280;42885;49.754;18.636;2023-11-21T04:06:38;97534.14;;;12.18;95.16
56992;BME280;42885;49.754;18.636;2023-11-21T04:09:10;97527.58;;;12.18;95.44
56992;BME280;42885;49.754;18.636;2023-11-21T04:11:41;97534.83;;;12.37;94.05
56992;BME280;42885;49.754;18.636;2023-11-21T04:14:13;97526.86;;;12.22;94.02
56992;BME280;42885;49.754;18.636;2023-11-21T04:16:44;97538.66;;;12.28;94.77
56992;BME280;42885;49.754;18.636;2023-11-21T04:19:15;97540.80;;;12.45;93.32
56992;BME280;42885;49.754;18.636;2023-11-21T04:21:47;97541.66;;;12.17;94.52
56992;BME280;42885;49.754;18.636;2023-11-21T04:24:18;97531.66;;;12.17;95.69
56992;BME280;42885;49.754;18.636;2023-11-21T04:26:49;97536.89;;;12.22;95.02
56992;BME280;42885;49.754;18.636;2023-11-21T04:29:20;97535.00;;;12.13;95.29
56992;BME280;42885;49.754;18.636;2023-11-21T04:31:52;97539.02;;;12.23;94.73
56992;BME280;42885;49.754;18.636;2023-11-21T04:34:23;97537.72;;;12.29;94.24
56992;BME280;42885;49.754;18.636;2023-11-21T04:36:54;97538.56;;;12.18;94.59
56992;BME280;42885;49.754;18.636;2023-11-21T04:39:26;97546.91;;;12.11;95.00
56992;BME280;42885;49.754;18.636;2023-11-21T04:41:57;97542.48;;;11.95;96.91
56992;BME280;42885;49.754;18.636;2023-11-21T04:44:28;97549.88;;;12.01;97.53
56992;BME280;42885;49.754;18.636;2023-11-21T04:46:59;97544.98;;;11.96;98.38
56992;BME280;42885;49.754;18.636;2023-11-21T04:49:32;97551.46;;;12.04;99.12
56992;BME280;42885;49.754;18.636;2023-11-21T04:52:03;97549.75;;;11.80;100.00
56992;BME280;42885;49.754;18.636;2023-11-21T04:54:35;97552.83;;;11.91;100.00
56992;BME280;42885;49.754;18.636;2023-11-21T04:57:07;97559.19;;;12.05;100.00
56992;BME280;42885;49.754;18.636;2023-11-21T04:59:38;97558.48;;;12.20;99.19
56992;BME280;42885;49.754;18.636;2023-11-21T05:02:09;97559.74;;;12.43;96.21
56992;BME280;42885;49.754;18.636;2023-11-21T05:04:40;97569.33;;;12.21;96.99
56992;BME280;42885;49.754;18.636;2023-11-21T05:07:12;97565.12;;;11.96;98.30
56992;BME280;42885;49.754;18.636;2023-11-21T05:09:45;97565.39;;;12.04;97.38
56992;BME280;42885;49.754;18.636;2023-11-21T05:12:16;97577.32;;;12.14;98.58
56992;BME280;42885;49.754;18.636;2023-11-21T05:14:47;97578.15;;;12.03;99.47
56992;BME280;42885;49.754;18.636;2023-11-21T05:17:18;97578.83;;;12.00;100.00
56992;BME280;42885;49.754;18.636;2023-11-21T05:19:49;97582.88;;;11.98;100.00
56992;BME280;42885;49.754;18.636;2023-11-21T05:22:20;97583.39;;;12.09;99.78
56992;BME280;42885;49.754;18.636;2023-11-21T05:24:52;97578.63;;;12.20;99.42
56992;BME280;42885;49.754;18.636;2023-11-21T05:27:23;97577.28;;;12.31;98.19
56992;BME280;42885;49.754;18.636;2023-11-21T05:29:54;97583.14;;;12.29;98.37
56992;BME280;42885;49.754;18.636;2023-11-21T05:32:25;97576.95;;;12.24;97.64
56992;BME280;42885;49.754;18.636;2023-11-21T05:34:58;97576.84;;;12.20;97.77
56992;BME280;42885;49.754;18.636;2023-11-21T05:37:29;97576.22;;;12.34;96.98
56992;BME280;42885;49.754;18.636;2023-11-21T05:40:01;97584.83;;;12.19;97.59
56992;BME280;42885;49.754;18.636;2023-11-21T05:42:34;97584.80;;;12.36;96.86
56992;BME280;42885;49.754;18.636;2023-11-21T05:45:05;97585.37;;;13.01;95.61
56992;BME280;42885;49.754;18.636;2023-11-21T05:47:43;97588.88;;;12.34;96.40
56992;BME280;42885;49.754;18.636;2023-11-21T05:50:16;97588.97;;;12.38;95.52
56992;BME280;42885;49.754;18.636;2023-11-21T05:52:48;97590.48;;;12.70;92.90
56992;BME280;42885;49.754;18.636;2023-11-21T05:55:19;97589.78;;;12.56;92.80
56992;BME280;42885;49.754;18.636;2023-11-21T05:57:52;97592.53;;;12.60;91.96
56992;BME280;42885;49.754;18.636;2023-11-21T06:00:23;97591.94;;;12.57;92.27
56992;BME280;42885;49.754;18.636;2023-11-21T06:02:55;97599.84;;;12.45;93.65
56992;BME280;42885;49.754;18.636;2023-11-21T06:05:28;97604.97;;;12.35;94.64
56992;BME280;42885;49.754;18.636;2023-11-21T06:08:01;97609.75;;;12.13;97.10
56992;BME280;42885;49.754;18.636;2023-11-21T06:10:33;97607.60;;;12.30;97.06
56992;BME280;42885;49.754;18.636;2023-11-21T06:13:04;97614.85;;;12.55;95.11
56992;BME280;42885;49.754;18.636;2023-11-21T06:15:37;97613.21;;;12.25;95.48
56992;BME280;42885;49.754;18.636;2023-11-21T06:18:08;97618.21;;;12.22;97.07
56992;BME280;42885;49.754;18.636;2023-11-21T06:20:40;97617.47;;;12.43;94.59
56992;BME280;42885;49.754;18.636;2023-11-21T06:23:11;97621.05;;;12.48;94.18
56992;BME280;42885;49.754;18.636;2023-11-21T06:25:42;97629.27;;;12.66;91.92
56992;BME280;42885;49.754;18.636;2023-11-21T06:28:13;97625.11;;;12.52;93.08
56992;BME280;42885;49.754;18.636;2023-11-21T06:30:50;97629.28;;;12.60;92.80
56992;BME280;42885;49.754;18.636;2023-11-21T06:33:23;97622.11;;;12.62;92.54
56992;BME280;42885;49.754;18.636;2023-11-21T06:35:55;97630.95;;;12.61;91.22
56992;BME280;42885;49.754;18.636;2023-11-21T06:38:26;97629.70;;;12.83;89.94
56992;BME280;42885;49.754;18.636;2023-11-21T06:40:59;97646.19;;;12.79;89.50
56992;BME280;42885;49.754;18.636;2023-11-21T06:43:31;97650.48;;;12.80;88.48
56992;BME280;42885;49.754;18.636;2023-11-21T06:46:02;97651.08;;;12.78;88.39
56992;BME280;42885;49.754;18.636;2023-11-21T06:48:34;97653.62;;;12.57;89.41
56992;BME280;42885;49.754;18.636;2023-11-21T06:51:07;97649.67;;;12.62;89.06
56992;BME280;42885;49.754;18.636;2023-11-21T06:53:38;97652.44;;;12.44;90.99
56992;BME280;42885;49.754;18.636;2023-11-21T06:56:18;97655.28;;;12.41;92.11
56992;BME280;42885;49.754;18.636;2023-11-21T06:58:49;97655.17;;;12.42;91.27
56992;BME280;42885;49.754;18.636;2023-11-21T07:01:22;97659.69;;;12.57;90.31
56992;BME280;42885;49.754;18.636;2023-11-21T07:03:54;97655.41;;;12.68;89.60
56992;BME280;42885;49.754;18.636;2023-11-21T07:06:25;97658.04;;;12.62;89.16
56992;BME280;42885;49.754;18.636;2023-11-21T07:08:56;97655.89;;;12.21;93.07
56992;BME280;42885;49.754;18.636;2023-11-21T07:11:28;97653.04;;;12.42;93.45
56992;BME280;42885;49.754;18.636;2023-11-21T07:13:59;97655.41;;;12.62;92.55
56992;BME280;42885;49.754;18.636;2023-11-21T07:16:34;97654.46;;;12.40;93.82
56992;BME280;42885;49.754;18.636;2023-11-21T07:19:06;97658.73;;;12.24;94.24
56992;BME280;42885;49.754;18.636;2023-11-21T07:21:38;97652.56;;;12.31;94.35
56992;BME280;42885;49.754;18.636;2023-11-21T07:24:10;97653.27;;;12.33;94.22
56992;BME280;42885;49.754;18.636;2023-11-21T07:26:41;97656.84;;;12.43;93.03
56992;BME280;42885;49.754;18.636;2023-11-21T07:29:12;97651.36;;;12.52;91.97
56992;BME280;42885;49.754;18.636;2023-11-21T07:31:43;97652.31;;;12.51;91.00
56992;BME280;42885;49.754;18.636;2023-11-21T07:34:14;97655.77;;;12.46;92.10
56992;BME280;42885;49.754;18.636;2023-11-21T07:36:45;97655.89;;;12.33;92.61
56992;BME280;42885;49.754;18.636;2023-11-21T07:39:16;97654.69;;;12.54;92.26
56992;BME280;42885;49.754;18.636;2023-11-21T07:41:47;97652.89;;;12.66;91.12
56992;BME280;42885;49.754;18.636;2023-11-21T07:44:20;97654.10;;;12.62;91.38
56992;BME280;42885;49.754;18.636;2023-11-21T07:46:52;97654.26;;;13.04;95.18
56992;BME280;42885;49.754;18.636;2023-11-21T07:49:25;97652.36;;;13.01;93.84
56992;BME280;42885;49.754;18.636;2023-11-21T07:51:56;97656.16;;;13.46;91.85
56992;BME280;42885;49.754;18.636;2023-11-21T07:54:27;97654.26;;;13.04;88.21
56992;BME280;42885;49.754;18.636;2023-11-21T07:56:58;97655.42;;;13.06;88.17
56992;BME280;42885;49.754;18.636;2023-11-21T07:59:29;97656.75;;;13.12;89.87
56992;BME280;42885;49.754;18.636;2023-11-21T08:02:02;97660.30;;;13.11;87.80
56992;BME280;42885;49.754;18.636;2023-11-21T08:04:34;97664.95;;;13.18;87.08
56992;BME280;42885;49.754;18.636;2023-11-21T08:07:05;97664.61;;;13.17;86.34
56992;BME280;42885;49.754;18.636;2023-11-21T08:09:36;97665.58;;;13.05;86.65
56992;BME280;42885;49.754;18.636;2023-11-21T08:12:08;97670.61;;;12.97;87.57
56992;BME280;42885;49.754;18.636;2023-11-21T08:14:40;97671.05;;;13.13;86.46
56992;BME280;42885;49.754;18.636;2023-11-21T08:17:11;97669.50;;;13.11;85.82
56992;BME280;42885;49.754;18.636;2023-11-21T08:19:42;97677.09;;;12.81;87.38
56992;BME280;42885;49.754;18.636;2023-11-21T08:22:17;97677.55;;;12.92;86.92
56992;BME280;42885;49.754;18.636;2023-11-21T08:24:48;97682.19;;;13.05;86.23
56992;BME280;42885;49.754;18.636;2023-11-21T08:27:20;97683.23;;;13.14;86.20
56992;BME280;42885;49.754;18.636;2023-11-21T08:29:50;97686.63;;;12.93;88.53
56992;BME280;42885;49.754;18.636;2023-11-21T08:32:22;97688.42;;;12.87;88.57
56992;BME280;42885;49.754;18.636;2023-11-21T08:34:53;97686.88;;;12.96;86.88
56992;BME280;42885;49.754;18.636;2023-11-21T08:37:24;97689.73;;;12.87;87.20
56992;BME280;42885;49.754;18.636;2023-11-21T08:39:58;97690.36;;;12.62;87.52
56992;BME280;42885;49.754;18.636;2023-11-21T08:42:32;97692.37;;;12.82;86.79
56992;BME280;42885;49.754;18.636;2023-11-21T08:45:03;97704.03;;;13.00;85.59
56992;BME280;42885;49.754;18.636;2023-11-21T08:47:37;97701.19;;;13.03;84.64
56992;BME280;42885;49.754;18.636;2023-11-21T08:50:08;97693.75;;;13.20;84.24
56992;BME280;42885;49.754;18.636;2023-11-21T08:52:40;97694.52;;;13.38;84.26
56992;BME280;42885;49.754;18.636;2023-11-21T08:55:12;97702.31;;;13.28;84.26
56992;BME280;42885;49.754;18.636;2023-11-21T08:57:44;97701.52;;;13.10;84.16
56992;BME280;42885;49.754;18.636;2023-11-21T09:00:16;97703.34;;;13.42;84.17
56992;BME280;42885;49.754;18.636;2023-11-21T09:02:49;97709.38;;;13.66;84.32
56992;BME280;42885;49.754;18.636;2023-11-21T09:05:19;97711.52;;;13.93;79.78
56992;BME280;42885;49.754;18.636;2023-11-21T09:07:51;97713.80;;;13.92;79.68
56992;BME280;42885;49.754;18.636;2023-11-21T09:10:22;97712.52;;;13.81;78.93
56992;BME280;42885;49.754;18.636;2023-11-21T09:12:54;97708.50;;;13.98;79.00
56992;BME280;42885;49.754;18.636;2023-11-21T09:15:25;97713.48;;;13.53;79.86
56992;BME280;42885;49.754;18.636;2023-11-21T09:17:56;97711.41;;;13.62;80.96
56992;BME280;42885;49.754;18.636;2023-11-21T09:20:28;97714.80;;;13.80;79.73
56992;BME280;42885;49.754;18.636;2023-11-21T09:22:58;97710.04;;;13.79;77.82
56992;BME280;42885;49.754;18.636;2023-11-21T09:25:29;97712.94;;;13.26;80.36
56992;BME280;42885;49.754;18.636;2023-11-21T09:28:00;97705.23;;;13.40;81.10
56992;BME280;42885;49.754;18.636;2023-11-21T09:30:31;97700.24;;;13.37;80.74
56992;BME280;42885;49.754;18.636;2023-11-21T09:33:03;97701.09;;;13.38;82.42
56992;BME280;42885;49.754;18.636;2023-11-21T09:35:42;97704.08;;;13.71;80.47
56992;BME280;42885;49.754;18.636;2023-11-21T09:38:08;97707.64;;;14.03;78.52
56992;BME280;42885;49.754;18.636;2023-11-21T09:40:41;97706.39;;;14.28;76.44
56992;BME280;42885;49.754;18.636;2023-11-21T09:43:17;97701.61;;;14.43;77.70
56992;BME280;42885;49.754;18.636;2023-11-21T09:45:56;97704.52;;;14.03;77.47
56992;BME280;42885;49.754;18.636;2023-11-21T09:48:29;97702.22;;;13.62;77.95
56992;BME280;42885;49.754;18.636;2023-11-21T09:51:01;97705.28;;;13.73;76.91
56992;BME280;42885;49.754;18.636;2023-11-21T09:53:34;97705.89;;;13.71;77.81
56992;BME280;42885;49.754;18.636;2023-11-21T09:56:07;97711.53;;;13.60;77.34
56992;BME280;42885;49.754;18.636;2023-11-21T09:58:38;97702.00;;;13.81;76.71
56992;BME280;42885;49.754;18.636;2023-11-21T10:01:09;97711.75;;;13.96;76.38
56992;BME280;42885;49.754;18.636;2023-11-21T10:03:40;97709.11;;;13.74;76.41
56992;BME280;42885;49.754;18.636;2023-11-21T10:06:13;97702.53;;;13.69;77.55
56992;BME280;42885;49.754;18.636;2023-11-21T10:08:44;97705.05;;;14.13;73.62
56992;BME280;42885;49.754;18.636;2023-11-21T10:11:17;97711.50;;;14.51;72.25
56992;BME280;42885;49.754;18.636;2023-11-21T10:13:50;97710.77;;;14.65;69.48
56992;BME280;42885;49.754;18.636;2023-11-21T10:16:22;97709.21;;;14.68;69.60
56992;BME280;42885;49.754;18.636;2023-11-21T10:18:58;97714.48;;;14.68;69.09
56992;BME280;42885;49.754;18.636;2023-11-21T10:21:29;97716.23;;;14.89;68.71
56992;BME280;42885;49.754;18.636;2023-11-21T10:24:00;97710.42;;;14.64;71.14
56992;BME280;42885;49.754;18.636;2023-11-21T10:26:32;97713.68;;;14.62;71.34
56992;BME280;42885;49.754;18.636;2023-11-21T10:29:04;97705.78;;;14.93;69.88
56992;BME280;42885;49.754;18.636;2023-11-21T10:31:35;97703.22;;;14.97;67.67
56992;BME280;42885;49.754;18.636;2023-11-21T10:34:18;97706.16;;;15.13;66.27
56992;BME280;42885;49.754;18.636;2023-11-21T10:36:50;97704.90;;;15.33;65.85
56992;BME280;42885;49.754;18.636;2023-11-21T10:39:21;97701.70;;;15.30;64.01
56992;BME280;42885;49.754;18.636;2023-11-21T10:41:55;97705.09;;;15.26;64.18
56992;BME280;42885;49.754;18.636;2023-11-21T10:44:26;97702.33;;;15.27;63.59
56992;BME280;42885;49.754;18.636;2023-11-21T10:46:56;97703.19;;;15.03;62.01
56992;BME280;42885;49.754;18.636;2023-11-21T10:49:29;97702.59;;;14.89;61.80
56992;BME280;42885;49.754;18.636;2023-11-21T10:52:00;97700.98;;;14.82;60.81
56992;BME280;42885;49.754;18.636;2023-11-21T10:54:31;97699.20;;;14.46;61.45
56992;BME280;42885;49.754;18.636;2023-11-21T10:57:04;97703.15;;;14.62;61.73
56992;BME280;42885;49.754;18.636;2023-11-21T10:59:35;97702.97;;;14.69;61.77
56992;BME280;42885;49.754;18.636;2023-11-21T11:02:17;97702.14;;;14.84;61.93
56992;BME280;42885;49.754;18.636;2023-11-21T11:04:45;97703.50;;;14.94;61.73
56992;BME280;42885;49.754;18.636;2023-11-21T11:07:16;97698.55;;;15.10;60.79
56992;BME280;42885;49.754;18.636;2023-11-21T11:09:47;97698.67;;;14.99;60.80
56992;BME280;42885;49.754;18.636;2023-11-21T11:12:19;97696.86;;;14.74;61.57
56992;BME280;42885;49.754;18.636;2023-11-21T11:14:51;97699.38;;;14.85;61.86
56992;BME280;42885;49.754;18.636;2023-11-21T11:17:22;97696.81;;;14.90;61.57
56992;BME280;42885;49.754;18.636;2023-11-21T11:19:53;97706.13;;;14.94;61.55
56992;BME280;42885;49.754;18.636;2023-11-21T11:25:56;97701.46;;;15.07;61.21
56992;BME280;42885;49.754;18.636;2023-11-21T11:28:44;97699.52;;;15.09;60.58
56992;BME280;42885;49.754;18.636;2023-11-21T11:31:21;97693.40;;;14.99;61.72
56992;BME280;42885;49.754;18.636;2023-11-21T11:36:48;97694.72;;;14.68;62.44
56992;BME280;42885;49.754;18.636;2023-11-21T11:39:37;97704.36;;;14.79;62.83
56992;BME280;42885;49.754;18.636;2023-11-21T11:42:13;97697.70;;;14.69;62.83
56992;BME280;42885;49.754;18.636;2023-11-21T11:44:48;97703.27;;;14.60;62.96
56992;BME280;42885;49.754;18.636;2023-11-21T11:47:29;97698.75;;;14.56;63.40
56992;BME280;42885;49.754;18.636;2023-11-21T11:50:11;97698.77;;;14.25;64.81
56992;BME280;42885;49.754;18.636;2023-11-21T11:52:51;97705.18;;;14.33;64.83
56992;BME280;42885;49.754;18.636;2023-11-21T11:55:25;97704.79;;;14.53;64.89
56992;BME280;42885;49.754;18.636;2023-11-21T11:58:00;97704.30;;;14.53;64.59
56992;BME280;42885;49.754;18.636;2023-11-21T12:00:34;97703.99;;;14.47;65.96
56992;BME280;42885;49.754;18.636;2023-11-21T12:03:08;97711.09;;;14.40;66.68
56992;BME280;42885;49.754;18.636;2023-11-21T12:05:40;97708.63;;;14.33;66.52
56992;BME280;42885;49.754;18.636;2023-11-21T12:08:14;97705.13;;;14.38;66.64
56992;BME280;42885;49.754;18.636;2023-11-21T12:10:46;97702.03;;;14.17;68.61
56992;BME280;42885;49.754;18.636;2023-11-21T12:13:18;97701.05;;;14.24;68.71
56992;BME280;42885;49.754;18.636;2023-11-21T12:15:49;97702.39;;;13.97;70.65
56992;BME280;42885;49.754;18.636;2023-11-21T12:18:21;97705.64;;;13.95;71.45
56992;BME280;42885;49.754;18.636;2023-11-21T12:20:52;97707.44;;;13.68;74.91
56992;BME280;42885;49.754;18.636;2023-11-21T12:23:23;97714.44;;;13.40;81.05
56992;BME280;42885;49.754;18.636;2023-11-21T12:25:55;97718.20;;;13.20;85.53
56992;BME280;42885;49.754;18.636;2023-11-21T12:28:27;97716.08;;;13.08;89.51
56992;BME280;42885;49.754;18.636;2023-11-21T12:30:59;97718.47;;;13.06;92.35
56992;BME280;42885;49.754;18.636;2023-11-21T12:33:30;97722.44;;;12.94;93.32
56992;BME280;42885;49.754;18.636;2023-11-21T12:36:02;97719.84;;;12.83;95.95
56992;BME280;42885;49.754;18.636;2023-11-21T12:38:35;97725.44;;;12.84;99.53
56992;BME280;42885;49.754;18.636;2023-11-21T12:41:06;97725.44;;;12.84;99.53
56992;BME280;42885;49.754;18.636;2023-11-21T12:43:37;97720.63;;;13.06;99.13
56992;BME280;42885;49.754;18.636;2023-11-21T12:46:13;97719.33;;;13.01;99.93
56992;BME280;42885;49.754;18.636;2023-11-21T12:48:45;97719.09;;;12.81;100.00
56992;BME280;42885;49.754;18.636;2023-11-21T12:51:17;97724.14;;;12.78;100.00
56992;BME280;42885;49.754;18.636;2023-11-21T12:53:48;97724.48;;;12.85;100.00
56992;BME280;42885;49.754;18.636;2023-11-21T12:56:22;97718.72;;;13.03;100.00
56992;BME280;42885;49.754;18.636;2023-11-21T12:58:56;97720.04;;;13.03;100.00
56992;BME280;42885;49.754;18.636;2023-11-21T13:01:39;97721.11;;;13.12;100.00
56992;BME280;42885;49.754;18.636;2023-11-21T13:04:20;97723.20;;;13.35;99.13
56992;BME280;42885;49.754;18.636;2023-11-21T13:06:52;97725.67;;;13.54;98.14
56992;BME280;42885;49.754;18.636;2023-11-21T13:09:24;97729.35;;;13.62;98.44
56992;BME280;42885;49.754;18.636;2023-11-21T13:12:01;97729.94;;;13.66;99.32
56992;BME280;42885;49.754;18.636;2023-11-21T13:14:34;97727.31;;;13.16;100.00
56992;BME280;42885;49.754;18.636;2023-11-21T13:17:05;97729.22;;;13.08;100.00
56992;BME280;42885;49.754;18.636;2023-11-21T13:19:36;97735.09;;;12.84;100.00